sensor_id;sensor_type;location;lat;lon;timestamp;pressure;altitude;pressure_sealevel;temperature;humidity
42105;BME280;61464;51.472;5.712;2022-09-01T00:01:40;101878.78;;;16.10;54.51
42105;BME280;61464;51.472;5.712;2022-09-01T00:04:09;101868.50;;;16.00;54.98
42105;BME280;61464;51.472;5.712;2022-09-01T00:06:36;101879.78;;;16.01;54.97
42105;BME280;61464;51.472;5.712;2022-09-01T00:09:07;101875.69;;;15.98;54.99
42105;BME280;61464;51.472;5.712;2022-09-01T00:11:34;101871.63;;;15.87;55.24
42105;BME280;61464;51.472;5.712;2022-09-01T00:14:02;101873.09;;;15.90;55.57
42105;BME280;61464;51.472;5.712;2022-09-01T00:16:29;101875.56;;;15.83;55.97
42105;BME280;61464;51.472;5.712;2022-09-01T00:18:55;101872.09;;;15.83;56.12
42105;BME280;61464;51.472;5.712;2022-09-01T00:21:33;101872.59;;;15.70;56.45
42105;BME280;61464;51.472;5.712;2022-09-01T00:24:01;101874.56;;;15.68;56.63
42105;BME280;61464;51.472;5.712;2022-09-01T00:26:27;101876.53;;;15.58;57.03
42105;BME280;61464;51.472;5.712;2022-09-01T00:28:53;101881.59;;;15.51;57.49
42105;BME280;61464;51.472;5.712;2022-09-01T00:31:20;101870.63;;;15.47;57.68
42105;BME280;61464;51.472;5.712;2022-09-01T00:33:47;101879.47;;;15.55;58.20
42105;BME280;61464;51.472;5.712;2022-09-01T00:36:15;101876.22;;;15.44;58.46
42105;BME280;61464;51.472;5.712;2022-09-01T00:38:41;101863.78;;;15.38;58.49
42105;BME280;61464;51.472;5.712;2022-09-01T00:41:08;101874.06;;;15.32;59.13
42105;BME280;61464;51.472;5.712;2022-09-01T00:43:42;101865.09;;;15.26;59.27
42105;BME280;61464;51.472;5.712;2022-09-01T00:46:23;101874.88;;;15.24;59.71
42105;BME280;61464;51.472;5.712;2022-09-01T00:49:16;101874.69;;;15.17;60.05
42105;BME280;61464;51.472;5.712;2022-09-01T00:51:50;101869.66;;;15.16;60.36
42105;BME280;61464;51.472;5.712;2022-09-01T00:54:23;101863.75;;;15.14;60.35
42105;BME280;61464;51.472;5.712;2022-09-01T00:56:50;101880.09;;;15.07;61.00
42105;BME280;61464;51.472;5.712;2022-09-01T00:59:20;101869.63;;;15.07;61.16
42105;BME280;61464;51.472;5.712;2022-09-01T01:01:47;101868.97;;;15.05;61.03
42105;BME280;61464;51.472;5.712;2022-09-01T01:04:13;101866.31;;;14.89;61.53
42105;BME280;61464;51.472;5.712;2022-09-01T01:06:52;101868.75;;;14.91;61.94
42105;BME280;61464;51.472;5.712;2022-09-01T01:09:25;101872.50;;;14.88;62.14
42105;BME280;61464;51.472;5.712;2022-09-01T01:11:52;101865.31;;;14.82;62.75
42105;BME280;61464;51.472;5.712;2022-09-01T01:14:18;101863.34;;;14.84;62.65
42105;BME280;61464;51.472;5.712;2022-09-01T01:16:47;101865.47;;;14.80;62.61
42105;BME280;61464;51.472;5.712;2022-09-01T01:25:11;101864.63;;;14.72;63.82
42105;BME280;61464;51.472;5.712;2022-09-01T01:27:38;101858.41;;;14.64;63.98
42105;BME280;61464;51.472;5.712;2022-09-01T01:30:09;101862.31;;;14.60;64.06
42105;BME280;61464;51.472;5.712;2022-09-01T01:32:38;101866.56;;;14.61;64.32
42105;BME280;61464;51.472;5.712;2022-09-01T01:35:09;101866.69;;;14.60;64.44
42105;BME280;61464;51.472;5.712;2022-09-01T01:37:44;101869.16;;;14.61;65.02
42105;BME280;61464;51.472;5.712;2022-09-01T01:40:13;101878.31;;;14.65;64.81
42105;BME280;61464;51.472;5.712;2022-09-01T01:42:46;101873.59;;;14.61;64.86
42105;BME280;61464;51.472;5.712;2022-09-01T01:45:14;101864.53;;;14.55;65.06
42105;BME280;61464;51.472;5.712;2022-09-01T01:47:44;101872.59;;;14.62;64.85
42105;BME280;61464;51.472;5.712;2022-09-01T01:50:12;101864.41;;;14.57;64.97
42105;BME280;61464;51.472;5.712;2022-09-01T01:52:40;101877.34;;;14.58;65.28
42105;BME280;61464;51.472;5.712;2022-09-01T01:55:07;101879.56;;;14.53;65.44
42105;BME280;61464;51.472;5.712;2022-09-01T01:57:40;101875.84;;;14.56;66.09
42105;BME280;61464;51.472;5.712;2022-09-01T02:00:20;101872.53;;;14.54;65.92
42105;BME280;61464;51.472;5.712;2022-09-01T02:02:48;101864.34;;;14.48;66.50
42105;BME280;61464;51.472;5.712;2022-09-01T02:05:23;101869.59;;;14.48;66.25
42105;BME280;61464;51.472;5.712;2022-09-01T02:07:56;101874.28;;;14.45;66.36
42105;BME280;61464;51.472;5.712;2022-09-01T02:10:31;101869.72;;;14.47;66.23
42105;BME280;61464;51.472;5.712;2022-09-01T02:12:59;101871.50;;;14.38;66.58
42105;BME280;61464;51.472;5.712;2022-09-01T02:15:35;101870.50;;;14.39;66.51
42105;BME280;61464;51.472;5.712;2022-09-01T02:18:04;101873.59;;;14.35;66.76
42105;BME280;61464;51.472;5.712;2022-09-01T02:20:30;101873.56;;;14.26;67.03
42105;BME280;61464;51.472;5.712;2022-09-01T02:22:58;101873.69;;;14.25;67.20
42105;BME280;61464;51.472;5.712;2022-09-01T02:25:29;101868.75;;;14.14;67.69
42105;BME280;61464;51.472;5.712;2022-09-01T02:27:56;101878.38;;;14.13;67.56
42105;BME280;61464;51.472;5.712;2022-09-01T02:30:22;101869.41;;;14.16;67.26
42105;BME280;61464;51.472;5.712;2022-09-01T02:32:49;101874.59;;;14.07;68.21
42105;BME280;61464;51.472;5.712;2022-09-01T02:35:15;101866.19;;;13.96;68.59
42105;BME280;61464;51.472;5.712;2022-09-01T02:37:41;101865.69;;;13.92;68.49
42105;BME280;61464;51.472;5.712;2022-09-01T02:40:09;101873.34;;;13.94;68.84
42105;BME280;61464;51.472;5.712;2022-09-01T02:42:37;101869.94;;;13.93;68.79
42105;BME280;61464;51.472;5.712;2022-09-01T02:45:06;101869.94;;;13.93;69.02
42105;BME280;61464;51.472;5.712;2022-09-01T02:47:37;101868.69;;;13.79;69.40
42105;BME280;61464;51.472;5.712;2022-09-01T02:50:07;101867.06;;;13.78;69.59
42105;BME280;61464;51.472;5.712;2022-09-01T02:52:38;101863.19;;;13.82;69.44
42105;BME280;61464;51.472;5.712;2022-09-01T02:55:07;101855.78;;;13.78;69.44
42105;BME280;61464;51.472;5.712;2022-09-01T02:57:33;101857.31;;;13.80;69.65
42105;BME280;61464;51.472;5.712;2022-09-01T02:59:59;101861.31;;;13.75;69.74
42105;BME280;61464;51.472;5.712;2022-09-01T03:02:25;101860.81;;;13.71;69.79
42105;BME280;61464;51.472;5.712;2022-09-01T03:04:54;101849.19;;;13.65;69.93
42105;BME280;61464;51.472;5.712;2022-09-01T03:07:20;101847.28;;;13.76;70.03
42105;BME280;61464;51.472;5.712;2022-09-01T03:09:50;101847.63;;;13.73;70.45
42105;BME280;61464;51.472;5.712;2022-09-01T03:12:17;101851.84;;;13.74;70.56
42105;BME280;61464;51.472;5.712;2022-09-01T03:14:44;101855.44;;;13.73;70.64
42105;BME280;61464;51.472;5.712;2022-09-01T03:17:10;101847.03;;;13.61;70.88
42105;BME280;61464;51.472;5.712;2022-09-01T03:19:36;101857.00;;;13.65;71.13
42105;BME280;61464;51.472;5.712;2022-09-01T03:22:09;101851.28;;;13.62;71.24
42105;BME280;61464;51.472;5.712;2022-09-01T03:24:34;101856.66;;;13.60;71.57
42105;BME280;61464;51.472;5.712;2022-09-01T03:27:00;101850.16;;;13.64;71.60
42105;BME280;61464;51.472;5.712;2022-09-01T03:29:26;101853.66;;;13.55;71.96
42105;BME280;61464;51.472;5.712;2022-09-01T03:31:52;101852.63;;;13.66;71.96
42105;BME280;61464;51.472;5.712;2022-09-01T03:34:18;101852.78;;;13.64;72.21
42105;BME280;61464;51.472;5.712;2022-09-01T03:36:46;101861.13;;;13.68;71.89
42105;BME280;61464;51.472;5.712;2022-09-01T03:39:17;101856.94;;;13.57;72.53
42105;BME280;61464;51.472;5.712;2022-09-01T03:41:43;101851.66;;;13.67;72.22
42105;BME280;61464;51.472;5.712;2022-09-01T03:44:11;101843.22;;;13.55;72.71
42105;BME280;61464;51.472;5.712;2022-09-01T03:46:38;101852.84;;;13.55;72.57
42105;BME280;61464;51.472;5.712;2022-09-01T03:49:05;101857.53;;;13.51;72.19
42105;BME280;61464;51.472;5.712;2022-09-01T03:51:36;101849.00;;;13.41;72.86
42105;BME280;61464;51.472;5.712;2022-09-01T03:54:03;101844.13;;;13.28;73.39
42105;BME280;61464;51.472;5.712;2022-09-01T03:56:30;101851.94;;;13.28;73.49
42105;BME280;61464;51.472;5.712;2022-09-01T03:58:58;101856.50;;;13.26;73.78
42105;BME280;61464;51.472;5.712;2022-09-01T04:01:27;101856.56;;;13.16;73.96
42105;BME280;61464;51.472;5.712;2022-09-01T04:03:56;101851.06;;;13.19;73.56
42105;BME280;61464;51.472;5.712;2022-09-01T04:06:22;101853.88;;;13.08;73.87
42105;BME280;61464;51.472;5.712;2022-09-01T04:08:49;101852.31;;;12.97;74.61
42105;BME280;61464;51.472;5.712;2022-09-01T04:11:20;101843.88;;;12.85;74.58
42105;BME280;61464;51.472;5.712;2022-09-01T04:13:48;101842.63;;;12.89;74.65
42105;BME280;61464;51.472;5.712;2022-09-01T04:16:35;101828.31;;;12.76;74.68
42105;BME280;61464;51.472;5.712;2022-09-01T04:19:24;101849.66;;;12.79;74.85
42105;BME280;61464;51.472;5.712;2022-09-01T04:21:54;101849.97;;;12.76;75.54
42105;BME280;61464;51.472;5.712;2022-09-01T04:24:23;101840.09;;;12.80;76.00
42105;BME280;61464;51.472;5.712;2022-09-01T04:26:50;101852.03;;;12.73;76.06
42105;BME280;61464;51.472;5.712;2022-09-01T04:29:18;101849.16;;;12.76;75.79
42105;BME280;61464;51.472;5.712;2022-09-01T04:31:48;101841.25;;;12.67;75.92
42105;BME280;61464;51.472;5.712;2022-09-01T04:34:21;101853.16;;;12.70;76.35
42105;BME280;61464;51.472;5.712;2022-09-01T04:36:48;101848.22;;;12.67;76.20
42105;BME280;61464;51.472;5.712;2022-09-01T04:39:21;101854.97;;;12.70;76.17
42105;BME280;61464;51.472;5.712;2022-09-01T04:41:47;101860.16;;;12.70;76.03
42105;BME280;61464;51.472;5.712;2022-09-01T04:44:16;101857.28;;;12.63;76.01
42105;BME280;61464;51.472;5.712;2022-09-01T04:46:44;101853.78;;;12.54;75.79
42105;BME280;61464;51.472;5.712;2022-09-01T04:49:18;101855.56;;;12.54;76.37
42105;BME280;61464;51.472;5.712;2022-09-01T04:51:50;101855.84;;;12.51;76.32
42105;BME280;61464;51.472;5.712;2022-09-01T04:54:17;101856.84;;;12.50;76.37
42105;BME280;61464;51.472;5.712;2022-09-01T04:56:47;101866.69;;;12.46;76.26
42105;BME280;61464;51.472;5.712;2022-09-01T04:59:20;101861.59;;;12.54;76.29
42105;BME280;61464;51.472;5.712;2022-09-01T05:01:47;101855.75;;;12.42;76.52
42105;BME280;61464;51.472;5.712;2022-09-01T05:04:22;101858.22;;;12.44;76.69
42105;BME280;61464;51.472;5.712;2022-09-01T05:06:54;101869.03;;;12.49;76.73
42105;BME280;61464;51.472;5.712;2022-09-01T05:09:22;101865.91;;;12.45;76.84
42105;BME280;61464;51.472;5.712;2022-09-01T05:11:50;101866.56;;;12.47;76.51
42105;BME280;61464;51.472;5.712;2022-09-01T05:14:18;101859.56;;;12.48;76.50
42105;BME280;61464;51.472;5.712;2022-09-01T05:16:45;101861.13;;;12.41;76.33
42105;BME280;61464;51.472;5.712;2022-09-01T05:19:12;101863.09;;;12.57;75.85
42105;BME280;61464;51.472;5.712;2022-09-01T05:21:44;101866.44;;;12.49;76.39
42105;BME280;61464;51.472;5.712;2022-09-01T05:24:17;101869.13;;;12.57;76.03
42105;BME280;61464;51.472;5.712;2022-09-01T05:26:44;101859.44;;;12.50;76.36
42105;BME280;61464;51.472;5.712;2022-09-01T05:29:13;101869.28;;;12.56;76.32
42105;BME280;61464;51.472;5.712;2022-09-01T05:31:44;101867.88;;;12.61;75.99
42105;BME280;61464;51.472;5.712;2022-09-01T05:34:12;101868.25;;;12.66;76.35
42105;BME280;61464;51.472;5.712;2022-09-01T05:36:43;101868.94;;;12.68;76.06
42105;BME280;61464;51.472;5.712;2022-09-01T05:39:11;101870.13;;;12.74;76.02
42105;BME280;61464;51.472;5.712;2022-09-01T05:41:41;101868.41;;;12.65;76.38
42105;BME280;61464;51.472;5.712;2022-09-01T05:44:08;101868.59;;;12.81;75.89
42105;BME280;61464;51.472;5.712;2022-09-01T05:46:36;101877.75;;;12.85;75.59
42105;BME280;61464;51.472;5.712;2022-09-01T05:49:04;101877.56;;;12.97;75.44
42105;BME280;61464;51.472;5.712;2022-09-01T05:51:31;101877.19;;;13.09;75.08
42105;BME280;61464;51.472;5.712;2022-09-01T05:54:01;101867.06;;;13.24;73.73
42105;BME280;61464;51.472;5.712;2022-09-01T05:56:29;101867.69;;;13.36;73.54
42105;BME280;61464;51.472;5.712;2022-09-01T05:58:58;101879.41;;;13.50;73.52
42105;BME280;61464;51.472;5.712;2022-09-01T06:01:28;101883.03;;;13.57;72.97
42105;BME280;61464;51.472;5.712;2022-09-01T06:03:59;101874.59;;;13.63;72.81
42105;BME280;61464;51.472;5.712;2022-09-01T06:06:34;101882.22;;;13.75;72.50
42105;BME280;61464;51.472;5.712;2022-09-01T06:09:07;101880.78;;;13.80;72.33
42105;BME280;61464;51.472;5.712;2022-09-01T06:11:34;101887.22;;;14.20;71.34
42105;BME280;61464;51.472;5.712;2022-09-01T06:14:00;101884.75;;;14.79;69.03
42105;BME280;61464;51.472;5.712;2022-09-01T06:16:27;101887.63;;;15.35;66.47
42105;BME280;61464;51.472;5.712;2022-09-01T06:18:54;101889.88;;;14.97;67.06
42105;BME280;61464;51.472;5.712;2022-09-01T06:21:23;101893.97;;;14.57;68.25
42105;BME280;61464;51.472;5.712;2022-09-01T06:23:50;101886.97;;;14.32;69.27
42105;BME280;61464;51.472;5.712;2022-09-01T06:26:23;101888.56;;;14.24;69.65
42105;BME280;61464;51.472;5.712;2022-09-01T06:28:55;101881.19;;;14.20;69.89
42105;BME280;61464;51.472;5.712;2022-09-01T06:31:23;101881.84;;;14.22;70.02
42105;BME280;61464;51.472;5.712;2022-09-01T06:33:54;101888.38;;;14.18;70.12
42105;BME280;61464;51.472;5.712;2022-09-01T06:36:23;101890.06;;;14.01;71.65
42105;BME280;61464;51.472;5.712;2022-09-01T06:38:51;101880.72;;;13.98;71.27
42105;BME280;61464;51.472;5.712;2022-09-01T06:41:20;101887.22;;;13.94;72.04
42105;BME280;61464;51.472;5.712;2022-09-01T06:43:48;101889.69;;;13.96;72.20
42105;BME280;61464;51.472;5.712;2022-09-01T06:46:15;101895.72;;;13.96;72.71
42105;BME280;61464;51.472;5.712;2022-09-01T06:48:42;101895.56;;;13.98;73.02
42105;BME280;61464;51.472;5.712;2022-09-01T06:51:21;101899.31;;;13.95;73.10
42105;BME280;61464;51.472;5.712;2022-09-01T06:53:50;101894.38;;;13.92;73.11
42105;BME280;61464;51.472;5.712;2022-09-01T06:56:30;101894.09;;;13.95;73.26
42105;BME280;61464;51.472;5.712;2022-09-01T06:59:00;101894.91;;;14.22;73.21
42105;BME280;61464;51.472;5.712;2022-09-01T07:01:28;101896.31;;;14.68;71.42
42105;BME280;61464;51.472;5.712;2022-09-01T07:03:55;101897.88;;;14.96;70.45
42105;BME280;61464;51.472;5.712;2022-09-01T07:06:23;101902.19;;;15.38;69.41
42105;BME280;61464;51.472;5.712;2022-09-01T07:08:55;101902.38;;;16.02;67.35
42105;BME280;61464;51.472;5.712;2022-09-01T07:11:33;101899.72;;;17.05;63.13
42105;BME280;61464;51.472;5.712;2022-09-01T07:14:04;101899.66;;;17.60;60.83
42105;BME280;61464;51.472;5.712;2022-09-01T07:16:36;101906.88;;;17.35;62.08
42105;BME280;61464;51.472;5.712;2022-09-01T07:19:06;101903.69;;;17.24;62.19
42105;BME280;61464;51.472;5.712;2022-09-01T07:21:38;101908.81;;;17.64;62.05
42105;BME280;61464;51.472;5.712;2022-09-01T07:24:05;101903.00;;;17.54;61.89
42105;BME280;61464;51.472;5.712;2022-09-01T07:26:33;101911.81;;;17.38;62.29
42105;BME280;61464;51.472;5.712;2022-09-01T07:29:03;101900.34;;;17.07;62.38
42105;BME280;61464;51.472;5.712;2022-09-01T07:31:38;101901.53;;;17.28;62.59
42105;BME280;61464;51.472;5.712;2022-09-01T07:34:08;101904.59;;;17.55;62.30
42105;BME280;61464;51.472;5.712;2022-09-01T07:36:35;101892.19;;;17.48;61.89
42105;BME280;61464;51.472;5.712;2022-09-01T07:39:03;101899.13;;;17.64;62.06
42105;BME280;61464;51.472;5.712;2022-09-01T07:41:29;101897.16;;;17.81;61.60
42105;BME280;61464;51.472;5.712;2022-09-01T07:43:57;101896.69;;;17.78;60.87
42105;BME280;61464;51.472;5.712;2022-09-01T07:46:25;101909.25;;;17.91;61.38
42105;BME280;61464;51.472;5.712;2022-09-01T07:48:55;101912.38;;;18.09;61.07
42105;BME280;61464;51.472;5.712;2022-09-01T07:51:23;101913.25;;;18.31;60.27
42105;BME280;61464;51.472;5.712;2022-09-01T07:53:52;101900.59;;;18.20;59.46
42105;BME280;61464;51.472;5.712;2022-09-01T07:56:20;101900.59;;;18.20;60.02
42105;BME280;61464;51.472;5.712;2022-09-01T07:58:48;101911.91;;;18.35;59.68
42105;BME280;61464;51.472;5.712;2022-09-01T08:01:24;101905.66;;;18.36;59.32
42105;BME280;61464;51.472;5.712;2022-09-01T08:03:55;101898.13;;;18.48;59.00
42105;BME280;61464;51.472;5.712;2022-09-01T08:06:23;101904.44;;;18.54;58.88
42105;BME280;61464;51.472;5.712;2022-09-01T08:08:53;101900.75;;;18.63;58.11
42105;BME280;61464;51.472;5.712;2022-09-01T08:11:29;101902.53;;;18.77;58.20
42105;BME280;61464;51.472;5.712;2022-09-01T08:13:56;101912.78;;;18.87;58.21
42105;BME280;61464;51.472;5.712;2022-09-01T08:16:30;101907.78;;;18.92;58.03
42105;BME280;61464;51.472;5.712;2022-09-01T08:18:57;101908.03;;;18.97;57.46
42105;BME280;61464;51.472;5.712;2022-09-01T08:21:24;101909.31;;;19.23;57.35
42105;BME280;61464;51.472;5.712;2022-09-01T08:23:52;101911.19;;;19.29;57.43
42105;BME280;61464;51.472;5.712;2022-09-01T08:26:23;101908.19;;;19.32;57.33
42105;BME280;61464;51.472;5.712;2022-09-01T08:28:49;101902.09;;;19.32;57.10
42105;BME280;61464;51.472;5.712;2022-09-01T08:31:17;101910.56;;;19.27;56.60
42105;BME280;61464;51.472;5.712;2022-09-01T08:33:46;101911.44;;;19.34;56.70
42105;BME280;61464;51.472;5.712;2022-09-01T08:36:14;101909.84;;;19.61;56.07
42105;BME280;61464;51.472;5.712;2022-09-01T08:38:41;101903.81;;;19.67;56.05
42105;BME280;61464;51.472;5.712;2022-09-01T08:44:40;101910.72;;;19.90;55.72
42105;BME280;61464;51.472;5.712;2022-09-01T08:47:13;101908.59;;;19.79;55.08
42105;BME280;61464;51.472;5.712;2022-09-01T08:49:41;101910.91;;;19.88;55.10
42105;BME280;61464;51.472;5.712;2022-09-01T08:52:29;101917.72;;;20.11;54.52
42105;BME280;61464;51.472;5.712;2022-09-01T08:55:20;101912.34;;;20.26;54.57
42105;BME280;61464;51.472;5.712;2022-09-01T08:57:50;101904.25;;;20.27;53.75
42105;BME280;61464;51.472;5.712;2022-09-01T09:00:23;101910.09;;;20.23;54.59
42105;BME280;61464;51.472;5.712;2022-09-01T09:03:20;101914.81;;;20.34;53.39
42105;BME280;61464;51.472;5.712;2022-09-01T09:06:16;101908.69;;;20.27;53.55
42105;BME280;61464;51.472;5.712;2022-09-01T09:08:59;101910.22;;;20.43;53.27
42105;BME280;61464;51.472;5.712;2022-09-01T09:16:51;101913.66;;;20.43;52.49
42105;BME280;61464;51.472;5.712;2022-09-01T09:19:32;101898.81;;;20.36;52.37
42105;BME280;61464;51.472;5.712;2022-09-01T09:22:04;101892.50;;;20.72;52.21
42105;BME280;61464;51.472;5.712;2022-09-01T09:27:31;101897.66;;;21.13;50.66
42105;BME280;61464;51.472;5.712;2022-09-01T09:37:42;101884.91;;;21.50;49.25
42105;BME280;61464;51.472;5.712;2022-09-01T09:40:18;101879.63;;;21.57;49.34
42105;BME280;61464;51.472;5.712;2022-09-01T09:45:29;101876.97;;;21.57;47.73
42105;BME280;61464;51.472;5.712;2022-09-01T09:50:36;101868.00;;;21.91;47.29
42105;BME280;61464;51.472;5.712;2022-09-01T09:53:15;101877.78;;;21.70;46.86
42105;BME280;61464;51.472;5.712;2022-09-01T09:56:18;101868.22;;;21.83;45.94
42105;BME280;61464;51.472;5.712;2022-09-01T09:58:46;101867.56;;;22.01;45.14
42105;BME280;61464;51.472;5.712;2022-09-01T10:01:28;101876.88;;;22.17;42.31
42105;BME280;61464;51.472;5.712;2022-09-01T10:03:58;101866.50;;;22.08;42.99
42105;BME280;61464;51.472;5.712;2022-09-01T10:06:38;101865.06;;;22.26;42.72
42105;BME280;61464;51.472;5.712;2022-09-01T10:11:54;101862.03;;;22.16;41.09
42105;BME280;61464;51.472;5.712;2022-09-01T10:14:37;101855.09;;;22.21;41.19
42105;BME280;61464;51.472;5.712;2022-09-01T10:17:20;101860.06;;;22.49;40.39
42105;BME280;61464;51.472;5.712;2022-09-01T10:20:10;101854.19;;;22.47;40.72
42105;BME280;61464;51.472;5.712;2022-09-01T10:22:38;101859.19;;;22.10;41.81
42105;BME280;61464;51.472;5.712;2022-09-01T10:25:07;101855.91;;;22.28;40.77
42105;BME280;61464;51.472;5.712;2022-09-01T10:27:41;101858.25;;;22.50;41.06
42105;BME280;61464;51.472;5.712;2022-09-01T10:30:15;101861.97;;;22.42;40.03
42105;BME280;61464;51.472;5.712;2022-09-01T10:32:45;101857.34;;;22.24;39.81
42105;BME280;61464;51.472;5.712;2022-09-01T10:35:33;101851.31;;;21.97;40.18
42105;BME280;61464;51.472;5.712;2022-09-01T10:38:08;101854.56;;;21.99;39.96
42105;BME280;61464;51.472;5.712;2022-09-01T10:40:42;101834.34;;;22.25;40.24
42105;BME280;61464;51.472;5.712;2022-09-01T10:43:34;101839.31;;;22.53;40.30
42105;BME280;61464;51.472;5.712;2022-09-01T10:48:57;101841.59;;;22.81;38.42
42105;BME280;61464;51.472;5.712;2022-09-01T10:53:52;101832.59;;;22.89;38.15
42105;BME280;61464;51.472;5.712;2022-09-01T10:56:46;101834.50;;;23.07;38.45
42105;BME280;61464;51.472;5.712;2022-09-01T10:59:24;101832.00;;;22.80;37.68
42105;BME280;61464;51.472;5.712;2022-09-01T11:07:03;101821.06;;;23.08;37.22
42105;BME280;61464;51.472;5.712;2022-09-01T11:09:41;101831.16;;;22.86;37.39
42105;BME280;61464;51.472;5.712;2022-09-01T11:15:42;101830.78;;;22.83;36.75
42105;BME280;61464;51.472;5.712;2022-09-01T11:18:32;101817.91;;;22.86;36.60
42105;BME280;61464;51.472;5.712;2022-09-01T11:21:27;101814.50;;;23.11;36.18
42105;BME280;61464;51.472;5.712;2022-09-01T11:26:57;101800.88;;;23.33;34.84
42105;BME280;61464;51.472;5.712;2022-09-01T11:29:59;101809.84;;;23.32;35.55
42105;BME280;61464;51.472;5.712;2022-09-01T11:32:34;101808.13;;;23.62;35.32
42105;BME280;61464;51.472;5.712;2022-09-01T11:35:04;101805.94;;;23.59;34.15
42105;BME280;61464;51.472;5.712;2022-09-01T11:37:32;101800.81;;;23.39;33.88
42105;BME280;61464;51.472;5.712;2022-09-01T11:40:01;101799.25;;;23.32;34.33
42105;BME280;61464;51.472;5.712;2022-09-01T11:42:35;101796.19;;;23.35;33.78
42105;BME280;61464;51.472;5.712;2022-09-01T11:45:18;101798.38;;;23.81;33.76
42105;BME280;61464;51.472;5.712;2022-09-01T11:48:08;101800.19;;;23.81;33.26
42105;BME280;61464;51.472;5.712;2022-09-01T11:50:38;101801.63;;;23.40;32.45
42105;BME280;61464;51.472;5.712;2022-09-01T11:53:14;101802.75;;;23.50;32.26
42105;BME280;61464;51.472;5.712;2022-09-01T11:55:48;101803.41;;;23.46;31.96
42105;BME280;61464;51.472;5.712;2022-09-01T12:00:57;101798.78;;;23.60;32.09
42105;BME280;61464;51.472;5.712;2022-09-01T12:03:29;101790.03;;;23.59;32.15
42105;BME280;61464;51.472;5.712;2022-09-01T12:06:00;101791.66;;;23.79;32.12
42105;BME280;61464;51.472;5.712;2022-09-01T12:08:32;101786.00;;;23.94;31.80
42105;BME280;61464;51.472;5.712;2022-09-01T12:11:22;101789.25;;;23.96;31.89
42105;BME280;61464;51.472;5.712;2022-09-01T12:14:08;101788.72;;;23.87;32.03
42105;BME280;61464;51.472;5.712;2022-09-01T12:16:37;101796.03;;;23.92;31.73
42105;BME280;61464;51.472;5.712;2022-09-01T12:19:06;101791.06;;;23.77;31.38
42105;BME280;61464;51.472;5.712;2022-09-01T12:21:40;101788.13;;;23.85;30.66
42105;BME280;61464;51.472;5.712;2022-09-01T12:24:17;101778.91;;;24.06;30.67
42105;BME280;61464;51.472;5.712;2022-09-01T12:26:46;101782.09;;;23.78;30.51
42105;BME280;61464;51.472;5.712;2022-09-01T12:29:14;101773.97;;;23.91;30.54
42105;BME280;61464;51.472;5.712;2022-09-01T12:31:47;101767.81;;;23.79;30.79
42105;BME280;61464;51.472;5.712;2022-09-01T12:39:42;101770.44;;;24.27;31.10
42105;BME280;61464;51.472;5.712;2022-09-01T12:44:58;101764.06;;;24.17;30.45
42105;BME280;61464;51.472;5.712;2022-09-01T12:50:31;101756.78;;;24.12;30.47
42105;BME280;61464;51.472;5.712;2022-09-01T12:53:02;101750.34;;;24.50;30.61
42105;BME280;61464;51.472;5.712;2022-09-01T12:55:35;101762.38;;;24.34;30.56
42105;BME280;61464;51.472;5.712;2022-09-01T12:58:07;101753.25;;;24.18;31.00
42105;BME280;61464;51.472;5.712;2022-09-01T13:00:52;101756.78;;;24.12;30.26
42105;BME280;61464;51.472;5.712;2022-09-01T13:03:18;101746.84;;;24.38;30.86
42105;BME280;61464;51.472;5.712;2022-09-01T13:05:54;101744.72;;;24.58;30.14
42105;BME280;61464;51.472;5.712;2022-09-01T13:08:46;101738.28;;;24.78;29.74
42105;BME280;61464;51.472;5.712;2022-09-01T13:11:14;101734.00;;;24.65;30.00
42105;BME280;61464;51.472;5.712;2022-09-01T13:13:42;101745.63;;;24.52;29.83
42105;BME280;61464;51.472;5.712;2022-09-01T13:16:08;101748.69;;;24.37;29.75
42105;BME280;61464;51.472;5.712;2022-09-01T13:18:41;101744.66;;;24.35;29.31
42105;BME280;61464;51.472;5.712;2022-09-01T13:21:13;101744.31;;;24.43;30.04
42105;BME280;61464;51.472;5.712;2022-09-01T13:23:43;101730.59;;;24.46;29.80
42105;BME280;61464;51.472;5.712;2022-09-01T13:26:10;101721.41;;;24.60;29.06
42105;BME280;61464;51.472;5.712;2022-09-01T13:28:36;101737.94;;;24.32;29.04
42105;BME280;61464;51.472;5.712;2022-09-01T13:31:03;101721.63;;;24.59;29.34
42105;BME280;61464;51.472;5.712;2022-09-01T13:33:34;101713.13;;;24.80;28.93
42105;BME280;61464;51.472;5.712;2022-09-01T13:36:02;101712.09;;;24.69;29.38
42105;BME280;61464;51.472;5.712;2022-09-01T13:38:28;101704.81;;;24.88;29.37
42105;BME280;61464;51.472;5.712;2022-09-01T13:40:56;101702.50;;;24.80;29.53
42105;BME280;61464;51.472;5.712;2022-09-01T13:43:23;101704.44;;;24.73;29.88
42105;BME280;61464;51.472;5.712;2022-09-01T13:45:52;101702.16;;;24.77;29.72
42105;BME280;61464;51.472;5.712;2022-09-01T13:48:19;101699.03;;;25.03;29.42
42105;BME280;61464;51.472;5.712;2022-09-01T13:50:48;101702.25;;;25.05;29.58
42105;BME280;61464;51.472;5.712;2022-09-01T13:53:15;101693.38;;;25.00;29.94
42105;BME280;61464;51.472;5.712;2022-09-01T13:55:42;101699.13;;;25.20;30.09
42105;BME280;61464;51.472;5.712;2022-09-01T13:58:09;101691.16;;;25.20;29.95
42105;BME280;61464;51.472;5.712;2022-09-01T14:00:39;101695.56;;;25.03;29.39
42105;BME280;61464;51.472;5.712;2022-09-01T14:03:14;101691.88;;;24.80;29.34
42105;BME280;61464;51.472;5.712;2022-09-01T14:05:44;101689.19;;;25.16;28.99
42105;BME280;61464;51.472;5.712;2022-09-01T14:08:12;101689.19;;;25.04;28.94
42105;BME280;61464;51.472;5.712;2022-09-01T14:10:44;101689.31;;;24.97;28.77
42105;BME280;61464;51.472;5.712;2022-09-01T14:13:12;101684.25;;;25.07;28.93
42105;BME280;61464;51.472;5.712;2022-09-01T14:15:38;101675.59;;;24.88;29.36